sensor_id;sensor_type;location;lat;lon;timestamp;temperature;humidity
16970;DHT22;8601;48.718;8.992;2022-08-19T00:00:22;20.20;99.90
16970;DHT22;8601;48.718;8.992;2022-08-19T00:02:53;20.10;99.90
16970;DHT22;8601;48.718;8.992;2022-08-19T00:05:22;20.10;99.90
16970;DHT22;8601;48.718;8.992;2022-08-19T00:07:49;20.10;99.90
16970;DHT22;8601;48.718;8.992;2022-08-19T00:10:18;20.20;99.90
16970;DHT22;8601;48.718;8.992;2022-08-19T00:12:46;20.20;99.90
16970;DHT22;8601;48.718;8.992;2022-08-19T00:15:15;20.10;99.90
16970;DHT22;8601;48.718;8.992;2022-08-19T00:17:44;20.10;99.90
16970;DHT22;8601;48.718;8.992;2022-08-19T00:20:14;20.10;99.90
16970;DHT22;8601;48.718;8.992;2022-08-19T00:22:42;20.10;99.90
16970;DHT22;8601;48.718;8.992;2022-08-19T00:25:10;20.10;99.90
16970;DHT22;8601;48.718;8.992;2022-08-19T00:27:37;20.00;99.90
16970;DHT22;8601;48.718;8.992;2022-08-19T00:30:06;20.10;99.90
16970;DHT22;8601;48.718;8.992;2022-08-19T00:32:35;20.10;99.90
16970;DHT22;8601;48.718;8.992;2022-08-19T00:35:04;20.10;99.90
16970;DHT22;8601;48.718;8.992;2022-08-19T00:37:33;20.10;99.90
16970;DHT22;8601;48.718;8.992;2022-08-19T00:40:02;20.10;99.90
16970;DHT22;8601;48.718;8.992;2022-08-19T00:42:29;20.00;99.90
16970;DHT22;8601;48.718;8.992;2022-08-19T00:44:57;20.00;99.90
16970;DHT22;8601;48.718;8.992;2022-08-19T00:47:24;20.00;99.90
16970;DHT22;8601;48.718;8.992;2022-08-19T00:49:53;20.00;99.90
16970;DHT22;8601;48.718;8.992;2022-08-19T00:52:23;20.00;99.90
16970;DHT22;8601;48.718;8.992;2022-08-19T00:54:54;19.90;99.90
16970;DHT22;8601;48.718;8.992;2022-08-19T00:57:26;19.90;99.90
16970;DHT22;8601;48.718;8.992;2022-08-19T00:59:55;19.90;99.90
16970;DHT22;8601;48.718;8.992;2022-08-19T01:02:23;19.90;99.90
16970;DHT22;8601;48.718;8.992;2022-08-19T01:04:50;19.90;99.90
16970;DHT22;8601;48.718;8.992;2022-08-19T01:07:17;19.90;99.90
16970;DHT22;8601;48.718;8.992;2022-08-19T01:09:44;19.90;99.90
16970;DHT22;8601;48.718;8.992;2022-08-19T01:12:13;19.90;99.90
16970;DHT22;8601;48.718;8.992;2022-08-19T01:14:40;19.90;99.90
16970;DHT22;8601;48.718;8.992;2022-08-19T01:17:09;19.90;99.90
16970;DHT22;8601;48.718;8.992;2022-08-19T01:19:38;19.90;99.90
16970;DHT22;8601;48.718;8.992;2022-08-19T01:22:10;19.90;99.90
16970;DHT22;8601;48.718;8.992;2022-08-19T01:24:40;19.90;99.90
16970;DHT22;8601;48.718;8.992;2022-08-19T01:27:08;19.80;99.90
16970;DHT22;8601;48.718;8.992;2022-08-19T01:29:38;19.90;99.90
16970;DHT22;8601;48.718;8.992;2022-08-19T01:32:06;19.90;99.90
16970;DHT22;8601;48.718;8.992;2022-08-19T01:34:34;19.90;99.90
16970;DHT22;8601;48.718;8.992;2022-08-19T01:37:05;19.80;99.90
16970;DHT22;8601;48.718;8.992;2022-08-19T01:39:34;19.80;99.90
16970;DHT22;8601;48.718;8.992;2022-08-19T01:42:03;19.80;99.90
16970;DHT22;8601;48.718;8.992;2022-08-19T01:44:31;19.70;99.90
16970;DHT22;8601;48.718;8.992;2022-08-19T01:46:58;19.80;99.90
16970;DHT22;8601;48.718;8.992;2022-08-19T01:49:26;19.70;99.90
16970;DHT22;8601;48.718;8.992;2022-08-19T01:51:53;19.70;99.90
16970;DHT22;8601;48.718;8.992;2022-08-19T01:54:21;19.70;99.90
16970;DHT22;8601;48.718;8.992;2022-08-19T01:56:49;19.70;99.90
16970;DHT22;8601;48.718;8.992;2022-08-19T01:59:21;19.70;99.90
16970;DHT22;8601;48.718;8.992;2022-08-19T02:01:50;19.60;99.90
16970;DHT22;8601;48.718;8.992;2022-08-19T02:04:17;19.60;99.90
16970;DHT22;8601;48.718;8.992;2022-08-19T02:06:44;19.50;99.90
16970;DHT22;8601;48.718;8.992;2022-08-19T02:09:11;19.50;99.90
16970;DHT22;8601;48.718;8.992;2022-08-19T02:11:38;19.50;99.90
16970;DHT22;8601;48.718;8.992;2022-08-19T02:14:07;19.50;99.90
16970;DHT22;8601;48.718;8.992;2022-08-19T02:16:36;19.50;99.90
16970;DHT22;8601;48.718;8.992;2022-08-19T02:19:04;19.40;99.90
16970;DHT22;8601;48.718;8.992;2022-08-19T02:21:31;19.40;99.90
16970;DHT22;8601;48.718;8.992;2022-08-19T02:23:59;19.50;99.90
16970;DHT22;8601;48.718;8.992;2022-08-19T02:26:26;19.40;99.90
16970;DHT22;8601;48.718;8.992;2022-08-19T02:28:53;19.30;99.90
16970;DHT22;8601;48.718;8.992;2022-08-19T02:31:23;19.30;99.90
16970;DHT22;8601;48.718;8.992;2022-08-19T02:33:51;19.30;99.90
16970;DHT22;8601;48.718;8.992;2022-08-19T02:36:19;19.30;99.90
16970;DHT22;8601;48.718;8.992;2022-08-19T02:38:46;19.30;99.90
16970;DHT22;8601;48.718;8.992;2022-08-19T02:41:13;19.20;99.90
16970;DHT22;8601;48.718;8.992;2022-08-19T02:43:40;19.30;99.90
16970;DHT22;8601;48.718;8.992;2022-08-19T02:46:12;19.30;99.90
16970;DHT22;8601;48.718;8.992;2022-08-19T02:48:40;19.30;99.90
16970;DHT22;8601;48.718;8.992;2022-08-19T02:51:08;19.20;99.90
16970;DHT22;8601;48.718;8.992;2022-08-19T02:53:35;19.30;99.90
16970;DHT22;8601;48.718;8.992;2022-08-19T02:56:06;19.20;99.90
16970;DHT22;8601;48.718;8.992;2022-08-19T02:58:33;19.20;99.90
16970;DHT22;8601;48.718;8.992;2022-08-19T03:01:00;19.20;99.90
16970;DHT22;8601;48.718;8.992;2022-08-19T03:03:27;19.30;99.90
16970;DHT22;8601;48.718;8.992;2022-08-19T03:06:06;19.30;99.90
16970;DHT22;8601;48.718;8.992;2022-08-19T03:08:36;19.20;99.90
16970;DHT22;8601;48.718;8.992;2022-08-19T03:11:03;19.10;99.90
16970;DHT22;8601;48.718;8.992;2022-08-19T03:13:30;19.10;99.90
16970;DHT22;8601;48.718;8.992;2022-08-19T03:15:58;19.10;99.90
16970;DHT22;8601;48.718;8.992;2022-08-19T03:18:25;19.10;99.90
16970;DHT22;8601;48.718;8.992;2022-08-19T03:20:53;19.10;99.90
16970;DHT22;8601;48.718;8.992;2022-08-19T03:23:20;19.10;99.90
16970;DHT22;8601;48.718;8.992;2022-08-19T03:25:50;19.10;99.90
16970;DHT22;8601;48.718;8.992;2022-08-19T03:28:20;19.10;99.90
16970;DHT22;8601;48.718;8.992;2022-08-19T03:30:58;19.00;99.90
16970;DHT22;8601;48.718;8.992;2022-08-19T03:33:26;19.00;99.90
16970;DHT22;8601;48.718;8.992;2022-08-19T03:36:01;19.00;99.90
16970;DHT22;8601;48.718;8.992;2022-08-19T03:38:28;19.00;99.90
16970;DHT22;8601;48.718;8.992;2022-08-19T03:40:56;19.00;99.90
16970;DHT22;8601;48.718;8.992;2022-08-19T03:43:23;19.00;99.90
16970;DHT22;8601;48.718;8.992;2022-08-19T03:45:59;19.00;99.90
16970;DHT22;8601;48.718;8.992;2022-08-19T03:48:26;19.00;99.90
16970;DHT22;8601;48.718;8.992;2022-08-19T03:50:53;19.00;99.90
16970;DHT22;8601;48.718;8.992;2022-08-19T03:53:20;19.00;99.90
16970;DHT22;8601;48.718;8.992;2022-08-19T03:55:47;18.90;99.90
16970;DHT22;8601;48.718;8.992;2022-08-19T03:58:15;18.90;99.90
16970;DHT22;8601;48.718;8.992;2022-08-19T04:00:43;18.90;99.90
16970;DHT22;8601;48.718;8.992;2022-08-19T04:03:10;18.90;99.90
16970;DHT22;8601;48.718;8.992;2022-08-19T04:05:37;18.80;99.90
16970;DHT22;8601;48.718;8.992;2022-08-19T04:08:04;18.80;99.90
16970;DHT22;8601;48.718;8.992;2022-08-19T04:10:31;18.80;99.90
16970;DHT22;8601;48.718;8.992;2022-08-19T04:13:01;18.90;99.90
16970;DHT22;8601;48.718;8.992;2022-08-19T04:15:31;18.80;99.90
16970;DHT22;8601;48.718;8.992;2022-08-19T04:18:04;18.80;99.90
16970;DHT22;8601;48.718;8.992;2022-08-19T04:20:39;18.80;99.90
16970;DHT22;8601;48.718;8.992;2022-08-19T04:23:06;18.80;99.90
16970;DHT22;8601;48.718;8.992;2022-08-19T04:25:36;18.80;99.90
16970;DHT22;8601;48.718;8.992;2022-08-19T04:28:04;18.80;99.90
16970;DHT22;8601;48.718;8.992;2022-08-19T04:30:37;18.70;99.90
16970;DHT22;8601;48.718;8.992;2022-08-19T04:33:05;18.70;99.90
16970;DHT22;8601;48.718;8.992;2022-08-19T04:35:35;18.70;99.90
16970;DHT22;8601;48.718;8.992;2022-08-19T04:38:03;18.70;99.90
16970;DHT22;8601;48.718;8.992;2022-08-19T04:40:30;18.80;99.90
16970;DHT22;8601;48.718;8.992;2022-08-19T04:43:14;18.80;99.90
16970;DHT22;8601;48.718;8.992;2022-08-19T04:45:44;18.70;99.90
16970;DHT22;8601;48.718;8.992;2022-08-19T04:48:11;18.70;99.90
16970;DHT22;8601;48.718;8.992;2022-08-19T04:50:40;18.70;99.90
16970;DHT22;8601;48.718;8.992;2022-08-19T04:53:08;18.70;99.90
16970;DHT22;8601;48.718;8.992;2022-08-19T04:55:38;18.70;99.90
16970;DHT22;8601;48.718;8.992;2022-08-19T04:58:07;18.70;99.90
16970;DHT22;8601;48.718;8.992;2022-08-19T05:00:36;18.80;99.90
16970;DHT22;8601;48.718;8.992;2022-08-19T05:03:05;18.80;99.90
16970;DHT22;8601;48.718;8.992;2022-08-19T05:05:32;18.80;99.90
16970;DHT22;8601;48.718;8.992;2022-08-19T05:08:00;18.80;99.90
16970;DHT22;8601;48.718;8.992;2022-08-19T05:10:27;18.80;99.90
16970;DHT22;8601;48.718;8.992;2022-08-19T05:12:53;18.80;99.90
16970;DHT22;8601;48.718;8.992;2022-08-19T05:15:21;18.80;99.90
16970;DHT22;8601;48.718;8.992;2022-08-19T05:17:48;18.80;99.90
16970;DHT22;8601;48.718;8.992;2022-08-19T05:20:30;18.80;99.90
16970;DHT22;8601;48.718;8.992;2022-08-19T05:23:15;18.90;99.90
16970;DHT22;8601;48.718;8.992;2022-08-19T05:25:42;18.90;99.90
16970;DHT22;8601;48.718;8.992;2022-08-19T05:28:10;18.90;99.90
16970;DHT22;8601;48.718;8.992;2022-08-19T05:30:36;18.80;99.90
16970;DHT22;8601;48.718;8.992;2022-08-19T05:33:03;18.80;99.90
16970;DHT22;8601;48.718;8.992;2022-08-19T05:35:32;18.80;99.90
16970;DHT22;8601;48.718;8.992;2022-08-19T05:37:59;18.80;99.90
16970;DHT22;8601;48.718;8.992;2022-08-19T05:40:26;18.80;99.90
16970;DHT22;8601;48.718;8.992;2022-08-19T05:42:54;18.90;99.90
16970;DHT22;8601;48.718;8.992;2022-08-19T05:45:21;18.90;99.90
16970;DHT22;8601;48.718;8.992;2022-08-19T05:47:48;19.00;99.90
16970;DHT22;8601;48.718;8.992;2022-08-19T05:50:16;18.90;99.90
16970;DHT22;8601;48.718;8.992;2022-08-19T05:52:44;19.00;99.90
16970;DHT22;8601;48.718;8.992;2022-08-19T05:55:12;18.90;99.90
16970;DHT22;8601;48.718;8.992;2022-08-19T05:57:39;18.90;99.90
16970;DHT22;8601;48.718;8.992;2022-08-19T06:00:07;19.00;99.90
16970;DHT22;8601;48.718;8.992;2022-08-19T06:02:36;18.90;99.90
16970;DHT22;8601;48.718;8.992;2022-08-19T06:05:04;19.00;99.90
16970;DHT22;8601;48.718;8.992;2022-08-19T06:07:34;19.00;99.90
16970;DHT22;8601;48.718;8.992;2022-08-19T06:10:04;19.00;99.90
16970;DHT22;8601;48.718;8.992;2022-08-19T06:12:32;19.00;99.90
16970;DHT22;8601;48.718;8.992;2022-08-19T06:15:01;19.00;99.90
16970;DHT22;8601;48.718;8.992;2022-08-19T06:17:29;19.00;99.90
16970;DHT22;8601;48.718;8.992;2022-08-19T06:19:56;19.10;99.90
16970;DHT22;8601;48.718;8.992;2022-08-19T06:22:24;19.00;99.90
16970;DHT22;8601;48.718;8.992;2022-08-19T06:24:50;19.00;99.90
16970;DHT22;8601;48.718;8.992;2022-08-19T06:27:21;19.00;99.90
16970;DHT22;8601;48.718;8.992;2022-08-19T06:29:48;19.10;99.90
16970;DHT22;8601;48.718;8.992;2022-08-19T06:32:16;19.10;99.90
16970;DHT22;8601;48.718;8.992;2022-08-19T06:34:43;19.20;99.90
16970;DHT22;8601;48.718;8.992;2022-08-19T06:37:11;19.10;99.90
16970;DHT22;8601;48.718;8.992;2022-08-19T06:39:40;19.10;99.90
16970;DHT22;8601;48.718;8.992;2022-08-19T06:42:08;19.10;99.90
16970;DHT22;8601;48.718;8.992;2022-08-19T06:44:41;19.10;99.90
16970;DHT22;8601;48.718;8.992;2022-08-19T06:47:11;19.10;99.90
16970;DHT22;8601;48.718;8.992;2022-08-19T06:49:38;19.20;99.90
16970;DHT22;8601;48.718;8.992;2022-08-19T06:52:06;19.30;99.90
16970;DHT22;8601;48.718;8.992;2022-08-19T06:54:33;19.30;99.90
16970;DHT22;8601;48.718;8.992;2022-08-19T06:57:01;19.30;99.90
16970;DHT22;8601;48.718;8.992;2022-08-19T06:59:29;19.30;99.90
16970;DHT22;8601;48.718;8.992;2022-08-19T07:02:03;19.30;99.90
16970;DHT22;8601;48.718;8.992;2022-08-19T07:04:31;19.30;99.90
16970;DHT22;8601;48.718;8.992;2022-08-19T07:07:01;19.30;99.90
16970;DHT22;8601;48.718;8.992;2022-08-19T07:09:29;19.40;99.90
16970;DHT22;8601;48.718;8.992;2022-08-19T07:11:56;19.50;99.90
16970;DHT22;8601;48.718;8.992;2022-08-19T07:14:25;19.40;99.90
16970;DHT22;8601;48.718;8.992;2022-08-19T07:16:54;19.30;99.90
16970;DHT22;8601;48.718;8.992;2022-08-19T07:19:25;19.40;99.90
16970;DHT22;8601;48.718;8.992;2022-08-19T07:21:53;19.50;99.90
16970;DHT22;8601;48.718;8.992;2022-08-19T07:24:21;19.50;99.90
16970;DHT22;8601;48.718;8.992;2022-08-19T07:26:51;19.50;99.90
16970;DHT22;8601;48.718;8.992;2022-08-19T07:29:20;19.60;99.90
16970;DHT22;8601;48.718;8.992;2022-08-19T07:31:50;19.60;99.90
16970;DHT22;8601;48.718;8.992;2022-08-19T07:34:17;19.70;99.90
16970;DHT22;8601;48.718;8.992;2022-08-19T07:36:46;19.80;99.90
16970;DHT22;8601;48.718;8.992;2022-08-19T07:39:15;19.90;99.90
16970;DHT22;8601;48.718;8.992;2022-08-19T07:41:43;20.00;99.90
16970;DHT22;8601;48.718;8.992;2022-08-19T07:44:11;20.00;99.90
16970;DHT22;8601;48.718;8.992;2022-08-19T07:46:44;19.90;99.90
16970;DHT22;8601;48.718;8.992;2022-08-19T07:49:12;19.80;99.90
16970;DHT22;8601;48.718;8.992;2022-08-19T07:51:45;19.80;99.90
16970;DHT22;8601;48.718;8.992;2022-08-19T07:54:13;19.80;99.90
16970;DHT22;8601;48.718;8.992;2022-08-19T07:56:39;19.70;99.90
16970;DHT22;8601;48.718;8.992;2022-08-19T07:59:06;19.80;99.90
16970;DHT22;8601;48.718;8.992;2022-08-19T08:01:35;19.70;99.90
16970;DHT22;8601;48.718;8.992;2022-08-19T08:04:03;19.70;99.90
16970;DHT22;8601;48.718;8.992;2022-08-19T08:06:49;19.70;99.90
16970;DHT22;8601;48.718;8.992;2022-08-19T08:09:36;19.70;99.90
16970;DHT22;8601;48.718;8.992;2022-08-19T08:12:06;19.80;99.90
16970;DHT22;8601;48.718;8.992;2022-08-19T08:14:41;19.80;99.90
16970;DHT22;8601;48.718;8.992;2022-08-19T08:17:10;19.80;99.90
16970;DHT22;8601;48.718;8.992;2022-08-19T08:19:38;19.70;99.90
16970;DHT22;8601;48.718;8.992;2022-08-19T08:22:08;19.70;99.90
16970;DHT22;8601;48.718;8.992;2022-08-19T08:25:00;19.80;99.90
16970;DHT22;8601;48.718;8.992;2022-08-19T08:27:27;19.80;99.90
16970;DHT22;8601;48.718;8.992;2022-08-19T08:29:57;19.80;99.90
16970;DHT22;8601;48.718;8.992;2022-08-19T08:32:24;19.80;99.90
16970;DHT22;8601;48.718;8.992;2022-08-19T08:34:52;19.80;99.90
16970;DHT22;8601;48.718;8.992;2022-08-19T08:37:20;19.80;99.90
16970;DHT22;8601;48.718;8.992;2022-08-19T08:39:47;19.70;99.90
16970;DHT22;8601;48.718;8.992;2022-08-19T08:42:20;19.70;99.90
16970;DHT22;8601;48.718;8.992;2022-08-19T08:44:58;19.70;99.90
16970;DHT22;8601;48.718;8.992;2022-08-19T08:47:27;19.70;99.90
16970;DHT22;8601;48.718;8.992;2022-08-19T08:49:59;19.70;99.90
16970;DHT22;8601;48.718;8.992;2022-08-19T08:52:31;19.60;99.90
16970;DHT22;8601;48.718;8.992;2022-08-19T08:55:03;19.50;99.90
16970;DHT22;8601;48.718;8.992;2022-08-19T08:57:39;19.60;99.90
16970;DHT22;8601;48.718;8.992;2022-08-19T09:00:09;19.60;99.90
16970;DHT22;8601;48.718;8.992;2022-08-19T09:02:37;19.70;99.90
16970;DHT22;8601;48.718;8.992;2022-08-19T09:05:05;19.70;99.90
16970;DHT22;8601;48.718;8.992;2022-08-19T09:07:44;19.70;99.90
16970;DHT22;8601;48.718;8.992;2022-08-19T09:10:20;19.90;99.90
16970;DHT22;8601;48.718;8.992;2022-08-19T09:12:54;19.90;99.90
16970;DHT22;8601;48.718;8.992;2022-08-19T09:15:30;19.90;99.90
16970;DHT22;8601;48.718;8.992;2022-08-19T09:18:01;19.90;99.90
16970;DHT22;8601;48.718;8.992;2022-08-19T09:20:29;20.00;99.90
16970;DHT22;8601;48.718;8.992;2022-08-19T09:22:58;20.00;99.90
16970;DHT22;8601;48.718;8.992;2022-08-19T09:25:26;20.10;99.90
16970;DHT22;8601;48.718;8.992;2022-08-19T09:27:54;20.10;99.90
16970;DHT22;8601;48.718;8.992;2022-08-19T09:30:24;20.10;99.90
16970;DHT22;8601;48.718;8.992;2022-08-19T09:32:53;20.20;99.90
16970;DHT22;8601;48.718;8.992;2022-08-19T09:35:21;20.20;99.90
16970;DHT22;8601;48.718;8.992;2022-08-19T09:37:49;20.20;99.90
16970;DHT22;8601;48.718;8.992;2022-08-19T09:40:18;20.30;99.90
16970;DHT22;8601;48.718;8.992;2022-08-19T09:42:46;20.30;99.90
16970;DHT22;8601;48.718;8.992;2022-08-19T09:45:13;20.30;99.90
16970;DHT22;8601;48.718;8.992;2022-08-19T09:47:41;20.40;99.90
16970;DHT22;8601;48.718;8.992;2022-08-19T09:50:09;20.40;99.90
16970;DHT22;8601;48.718;8.992;2022-08-19T09:52:37;20.40;99.90
16970;DHT22;8601;48.718;8.992;2022-08-19T09:55:05;20.50;99.90
16970;DHT22;8601;48.718;8.992;2022-08-19T09:57:34;20.50;99.90
16970;DHT22;8601;48.718;8.992;2022-08-19T10:00:03;20.60;99.90
16970;DHT22;8601;48.718;8.992;2022-08-19T10:02:30;20.60;99.90
16970;DHT22;8601;48.718;8.992;2022-08-19T10:04:57;20.50;99.90
16970;DHT22;8601;48.718;8.992;2022-08-19T10:07:41;20.60;99.90
16970;DHT22;8601;48.718;8.992;2022-08-19T10:10:09;20.60;99.90
16970;DHT22;8601;48.718;8.992;2022-08-19T10:12:37;20.70;99.90
16970;DHT22;8601;48.718;8.992;2022-08-19T10:15:06;20.60;99.90
16970;DHT22;8601;48.718;8.992;2022-08-19T10:17:33;20.70;99.90
16970;DHT22;8601;48.718;8.992;2022-08-19T10:20:00;20.70;99.90
16970;DHT22;8601;48.718;8.992;2022-08-19T10:22:29;20.70;99.90
16970;DHT22;8601;48.718;8.992;2022-08-19T10:24:56;20.70;99.90
16970;DHT22;8601;48.718;8.992;2022-08-19T10:27:23;20.70;99.90
16970;DHT22;8601;48.718;8.992;2022-08-19T10:29:52;20.70;99.90
16970;DHT22;8601;48.718;8.992;2022-08-19T10:32:19;20.70;99.90
16970;DHT22;8601;48.718;8.992;2022-08-19T10:34:47;20.70;99.90
16970;DHT22;8601;48.718;8.992;2022-08-19T10:37:15;20.70;99.90
16970;DHT22;8601;48.718;8.992;2022-08-19T10:39:45;20.70;99.90
16970;DHT22;8601;48.718;8.992;2022-08-19T10:42:13;20.70;99.90
16970;DHT22;8601;48.718;8.992;2022-08-19T10:44:42;20.70;99.90
16970;DHT22;8601;48.718;8.992;2022-08-19T10:47:11;20.70;99.90
16970;DHT22;8601;48.718;8.992;2022-08-19T10:49:37;20.80;99.90
16970;DHT22;8601;48.718;8.992;2022-08-19T10:52:24;20.80;99.90
16970;DHT22;8601;48.718;8.992;2022-08-19T10:54:59;20.90;99.90
16970;DHT22;8601;48.718;8.992;2022-08-19T10:57:43;21.00;99.90
16970;DHT22;8601;48.718;8.992;2022-08-19T11:00:11;21.00;99.90
16970;DHT22;8601;48.718;8.992;2022-08-19T11:02:40;21.10;99.90
16970;DHT22;8601;48.718;8.992;2022-08-19T11:05:08;21.20;99.90
16970;DHT22;8601;48.718;8.992;2022-08-19T11:07:38;21.30;99.90
16970;DHT22;8601;48.718;8.992;2022-08-19T11:10:06;21.40;99.90
16970;DHT22;8601;48.718;8.992;2022-08-19T11:12:33;21.50;99.90
16970;DHT22;8601;48.718;8.992;2022-08-19T11:15:05;21.60;99.90
16970;DHT22;8601;48.718;8.992;2022-08-19T11:17:33;21.70;99.90
16970;DHT22;8601;48.718;8.992;2022-08-19T11:20:03;21.70;99.90
16970;DHT22;8601;48.718;8.992;2022-08-19T11:22:31;21.70;99.90
16970;DHT22;8601;48.718;8.992;2022-08-19T11:24:58;21.80;99.90
16970;DHT22;8601;48.718;8.992;2022-08-19T11:27:25;21.80;99.90
16970;DHT22;8601;48.718;8.992;2022-08-19T11:29:51;21.80;99.90
16970;DHT22;8601;48.718;8.992;2022-08-19T11:32:19;21.90;99.90
16970;DHT22;8601;48.718;8.992;2022-08-19T11:34:46;21.80;99.90
16970;DHT22;8601;48.718;8.992;2022-08-19T11:37:14;21.80;99.90
16970;DHT22;8601;48.718;8.992;2022-08-19T11:39:41;21.80;99.90
16970;DHT22;8601;48.718;8.992;2022-08-19T11:42:08;21.90;99.90
16970;DHT22;8601;48.718;8.992;2022-08-19T11:44:49;21.90;99.90
16970;DHT22;8601;48.718;8.992;2022-08-19T11:47:16;21.90;99.90
16970;DHT22;8601;48.718;8.992;2022-08-19T11:49:43;21.80;99.90
16970;DHT22;8601;48.718;8.992;2022-08-19T11:52:10;21.90;99.90
16970;DHT22;8601;48.718;8.992;2022-08-19T11:54:38;21.90;99.90
16970;DHT22;8601;48.718;8.992;2022-08-19T11:57:06;21.80;99.90
16970;DHT22;8601;48.718;8.992;2022-08-19T11:59:33;21.90;99.90
16970;DHT22;8601;48.718;8.992;2022-08-19T12:02:00;21.90;99.90
16970;DHT22;8601;48.718;8.992;2022-08-19T12:04:26;21.90;99.90
16970;DHT22;8601;48.718;8.992;2022-08-19T12:06:53;21.90;99.90
16970;DHT22;8601;48.718;8.992;2022-08-19T12:09:21;21.80;99.90
16970;DHT22;8601;48.718;8.992;2022-08-19T12:11:50;21.90;99.90
16970;DHT22;8601;48.718;8.992;2022-08-19T12:14:19;21.90;99.90
16970;DHT22;8601;48.718;8.992;2022-08-19T12:16:46;21.90;99.90
16970;DHT22;8601;48.718;8.992;2022-08-19T12:19:13;21.90;99.90
16970;DHT22;8601;48.718;8.992;2022-08-19T12:21:41;22.10;99.90
16970;DHT22;8601;48.718;8.992;2022-08-19T12:24:08;22.30;99.90
16970;DHT22;8601;48.718;8.992;2022-08-19T12:26:35;22.50;99.00
16970;DHT22;8601;48.718;8.992;2022-08-19T12:29:04;22.60;98.00
16970;DHT22;8601;48.718;8.992;2022-08-19T12:31:31;22.80;98.30
16970;DHT22;8601;48.718;8.992;2022-08-19T12:33:58;22.90;97.00
16970;DHT22;8601;48.718;8.992;2022-08-19T12:36:28;22.90;96.90
16970;DHT22;8601;48.718;8.992;2022-08-19T12:38:58;22.90;96.50
16970;DHT22;8601;48.718;8.992;2022-08-19T12:41:26;22.90;96.30
16970;DHT22;8601;48.718;8.992;2022-08-19T12:43:53;23.00;96.10
16970;DHT22;8601;48.718;8.992;2022-08-19T12:46:22;23.00;95.00
16970;DHT22;8601;48.718;8.992;2022-08-19T12:48:49;23.00;95.10
16970;DHT22;8601;48.718;8.992;2022-08-19T12:51:18;23.00;94.00
16970;DHT22;8601;48.718;8.992;2022-08-19T12:53:46;23.10;93.20
16970;DHT22;8601;48.718;8.992;2022-08-19T12:56:13;23.20;93.40
16970;DHT22;8601;48.718;8.992;2022-08-19T12:58:41;23.20;91.60
16970;DHT22;8601;48.718;8.992;2022-08-19T13:01:10;23.20;92.40
16970;DHT22;8601;48.718;8.992;2022-08-19T13:03:39;23.20;91.70
16970;DHT22;8601;48.718;8.992;2022-08-19T13:06:06;23.10;92.30
16970;DHT22;8601;48.718;8.992;2022-08-19T13:08:34;23.10;92.10
16970;DHT22;8601;48.718;8.992;2022-08-19T13:11:10;23.10;90.80
16970;DHT22;8601;48.718;8.992;2022-08-19T13:13:38;23.10;90.90
16970;DHT22;8601;48.718;8.992;2022-08-19T13:16:08;23.10;90.00
16970;DHT22;8601;48.718;8.992;2022-08-19T13:18:36;23.20;90.40
16970;DHT22;8601;48.718;8.992;2022-08-19T13:21:07;23.40;89.90
16970;DHT22;8601;48.718;8.992;2022-08-19T13:23:35;23.40;89.10
16970;DHT22;8601;48.718;8.992;2022-08-19T13:26:04;23.50;87.80
16970;DHT22;8601;48.718;8.992;2022-08-19T13:28:32;23.50;86.00
16970;DHT22;8601;48.718;8.992;2022-08-19T13:31:15;23.50;85.30
16970;DHT22;8601;48.718;8.992;2022-08-19T13:34:00;23.60;86.60
16970;DHT22;8601;48.718;8.992;2022-08-19T13:36:29;23.60;85.70
16970;DHT22;8601;48.718;8.992;2022-08-19T13:38:56;23.60;87.10
16970;DHT22;8601;48.718;8.992;2022-08-19T13:41:24;23.50;87.00
16970;DHT22;8601;48.718;8.992;2022-08-19T13:43:53;23.40;86.10
16970;DHT22;8601;48.718;8.992;2022-08-19T13:46:20;23.40;88.60
16970;DHT22;8601;48.718;8.992;2022-08-19T13:48:47;23.40;89.80
16970;DHT22;8601;48.718;8.992;2022-08-19T13:51:15;23.40;90.30
16970;DHT22;8601;48.718;8.992;2022-08-19T13:53:44;23.50;90.30
16970;DHT22;8601;48.718;8.992;2022-08-19T13:56:16;23.60;90.20
16970;DHT22;8601;48.718;8.992;2022-08-19T13:58:45;23.60;90.00
16970;DHT22;8601;48.718;8.992;2022-08-19T14:01:19;23.50;89.90
16970;DHT22;8601;48.718;8.992;2022-08-19T14:03:46;23.50;89.70
16970;DHT22;8601;48.718;8.992;2022-08-19T14:06:13;23.40;90.20
16970;DHT22;8601;48.718;8.992;2022-08-19T14:08:40;23.40;90.00
16970;DHT22;8601;48.718;8.992;2022-08-19T14:11:10;23.50;88.70
16970;DHT22;8601;48.718;8.992;2022-08-19T14:13:37;23.60;88.90
16970;DHT22;8601;48.718;8.992;2022-08-19T14:16:07;23.70;89.70
16970;DHT22;8601;48.718;8.992;2022-08-19T14:18:34;23.70;89.30
16970;DHT22;8601;48.718;8.992;2022-08-19T14:21:01;23.70;89.10
16970;DHT22;8601;48.718;8.992;2022-08-19T14:23:28;23.70;87.10
16970;DHT22;8601;48.718;8.992;2022-08-19T14:26:03;23.60;87.90
16970;DHT22;8601;48.718;8.992;2022-08-19T14:28:32;23.60;87.70
16970;DHT22;8601;48.718;8.992;2022-08-19T14:30:59;23.50;86.50
16970;DHT22;8601;48.718;8.992;2022-08-19T14:33:26;23.40;85.90
16970;DHT22;8601;48.718;8.992;2022-08-19T14:35:53;23.30;86.20
16970;DHT22;8601;48.718;8.992;2022-08-19T14:38:20;23.30;86.40
16970;DHT22;8601;48.718;8.992;2022-08-19T14:40:47;23.30;86.40
16970;DHT22;8601;48.718;8.992;2022-08-19T14:43:15;23.20;86.70
16970;DHT22;8601;48.718;8.992;2022-08-19T14:45:44;23.30;86.70
16970;DHT22;8601;48.718;8.992;2022-08-19T14:48:11;23.40;87.40
16970;DHT22;8601;48.718;8.992;2022-08-19T14:50:38;23.40;86.50
16970;DHT22;8601;48.718;8.992;2022-08-19T14:53:07;23.50;86.70
16970;DHT22;8601;48.718;8.992;2022-08-19T14:55:35;23.60;86.90
16970;DHT22;8601;48.718;8.992;2022-08-19T14:58:02;23.60;86.00
16970;DHT22;8601;48.718;8.992;2022-08-19T15:00:29;23.60;85.70
16970;DHT22;8601;48.718;8.992;2022-08-19T15:02:57;23.70;85.40
16970;DHT22;8601;48.718;8.992;2022-08-19T15:05:24;23.70;84.00
16970;DHT22;8601;48.718;8.992;2022-08-19T15:07:52;23.70;84.70
16970;DHT22;8601;48.718;8.992;2022-08-19T15:10:20;23.70;84.40
16970;DHT22;8601;48.718;8.992;2022-08-19T15:12:50;23.80;83.40
16970;DHT22;8601;48.718;8.992;2022-08-19T15:15:17;23.80;82.10
16970;DHT22;8601;48.718;8.992;2022-08-19T15:17:45;23.90;82.20
16970;DHT22;8601;48.718;8.992;2022-08-19T15:20:16;24.00;82.20
16970;DHT22;8601;48.718;8.992;2022-08-19T15:22:44;24.00;81.90
16970;DHT22;8601;48.718;8.992;2022-08-19T15:25:14;24.20;79.60
16970;DHT22;8601;48.718;8.992;2022-08-19T15:27:41;24.40;79.30
16970;DHT22;8601;48.718;8.992;2022-08-19T15:30:09;24.60;77.70
16970;DHT22;8601;48.718;8.992;2022-08-19T15:32:37;24.80;77.70
16970;DHT22;8601;48.718;8.992;2022-08-19T15:35:06;24.80;75.00
16970;DHT22;8601;48.718;8.992;2022-08-19T15:37:35;25.00;75.00
16970;DHT22;8601;48.718;8.992;2022-08-19T15:40:02;25.10;74.50
16970;DHT22;8601;48.718;8.992;2022-08-19T15:42:30;25.20;74.30
16970;DHT22;8601;48.718;8.992;2022-08-19T15:44:57;25.10;75.60
16970;DHT22;8601;48.718;8.992;2022-08-19T15:47:28;25.10;74.60
16970;DHT22;8601;48.718;8.992;2022-08-19T15:49:56;25.10;74.20
16970;DHT22;8601;48.718;8.992;2022-08-19T15:52:24;25.00;74.80
16970;DHT22;8601;48.718;8.992;2022-08-19T15:54:53;25.10;75.10